createdAt,value
2022-08-11T00:01:15.577Z,23.31
2022-08-11T00:03:50.247Z,23.30
2022-08-11T00:06:28.473Z,23.25
2022-08-11T00:08:57.907Z,23.28
2022-08-11T00:11:35.603Z,23.34
2022-08-11T00:14:06.427Z,23.23
2022-08-11T00:16:35.842Z,23.24
2022-08-11T00:19:04.475Z,23.25
2022-08-11T00:22:05.379Z,23.12
2022-08-11T00:24:53.438Z,23.02
2022-08-11T00:27:33.603Z,23.09
2022-08-11T00:30:04.651Z,22.92
2022-08-11T00:32:33.937Z,22.88
2022-08-11T00:35:54.655Z,22.99
2022-08-11T00:37:58.854Z,22.95
2022-08-11T00:40:38.866Z,22.94
2022-08-11T00:43:20.870Z,22.97
2022-08-11T00:46:12.885Z,22.94
2022-08-11T00:48:50.924Z,22.95
2022-08-11T00:52:05.174Z,23.02
2022-08-11T00:55:01.059Z,22.96
2022-08-11T00:58:21.782Z,22.95
2022-08-11T01:01:09.394Z,22.94
2022-08-11T01:04:01.109Z,22.89
2022-08-11T01:07:02.193Z,22.89
2022-08-11T01:09:50.591Z,22.73
2022-08-11T01:12:42.420Z,22.70
2022-08-11T01:15:35.411Z,22.64
2022-08-11T01:18:42.322Z,22.61
2022-08-11T01:21:45.689Z,22.70
2022-08-11T01:25:04.367Z,22.62
2022-08-11T01:28:15.435Z,22.20
2022-08-11T01:31:21.253Z,22.41
2022-08-11T01:34:34.073Z,22.09
2022-08-11T01:37:31.582Z,22.05
2022-08-11T01:40:26.174Z,22.06
2022-08-11T01:43:46.566Z,22.09
2022-08-11T01:46:18.574Z,21.90
2022-08-11T01:50:06.742Z,21.86
2022-08-11T01:52:15.363Z,22.00
2022-08-11T01:54:57.949Z,21.74
2022-08-11T01:57:37.535Z,21.80
2022-08-11T02:00:14.679Z,21.76
2022-08-11T02:02:55.665Z,21.76
2022-08-11T02:06:02.705Z,21.62
2022-08-11T02:08:50.715Z,21.66
2022-08-11T02:11:37.778Z,21.51
2022-08-11T02:14:16.910Z,21.49
2022-08-11T02:16:54.643Z,21.25
2022-08-11T02:19:46.066Z,21.38
2022-08-11T02:22:42.390Z,21.24
2022-08-11T02:25:19.345Z,21.14
2022-08-11T02:27:54.394Z,21.02
2022-08-11T02:30:27.705Z,21.01
2022-08-11T02:33:25.339Z,20.98
2022-08-11T02:36:02.980Z,20.91
2022-08-11T02:38:43.529Z,20.85
2022-08-11T02:41:35.369Z,20.86
2022-08-11T02:44:18.626Z,20.81
2022-08-11T02:46:56.738Z,20.74
2022-08-11T02:50:06.579Z,20.69
2022-08-11T02:52:42.382Z,20.46
2022-08-11T02:55:48.978Z,20.57
2022-08-11T02:58:27.968Z,20.53
2022-08-11T03:01:11.781Z,20.63
2022-08-11T03:03:51.649Z,20.68
2022-08-11T03:06:36.954Z,20.53
2022-08-11T03:09:14.586Z,20.38
2022-08-11T03:12:15.326Z,20.25
2022-08-11T03:15:09.167Z,20.20
2022-08-11T03:17:52.711Z,20.12
2022-08-11T03:20:38.066Z,20.21
2022-08-11T03:23:20.154Z,20.11
2022-08-11T03:26:00.143Z,19.90
2022-08-11T03:28:33.875Z,19.91
2022-08-11T03:31:21.022Z,19.81
2022-08-11T03:34:06.837Z,19.83
2022-08-11T03:37:16.528Z,19.82
2022-08-11T03:39:57.441Z,19.80
2022-08-11T03:42:34.014Z,19.83
2022-08-11T03:45:18.212Z,19.63
2022-08-11T03:47:59.319Z,19.56
2022-08-11T03:50:44.212Z,19.73
2022-08-11T03:53:20.328Z,19.65
2022-08-11T03:56:24.015Z,19.51
2022-08-11T03:59:21.702Z,19.59
2022-08-11T04:02:19.350Z,19.47
2022-08-11T04:05:21.598Z,19.40
2022-08-11T04:08:34.674Z,19.43
2022-08-11T04:11:36.822Z,19.51
2022-08-11T04:15:00.122Z,19.58
2022-08-11T04:18:01.495Z,19.56
2022-08-11T04:20:53.122Z,19.49
2022-08-11T04:24:36.254Z,19.62
2022-08-11T04:27:19.198Z,19.47
2022-08-11T04:30:05.497Z,19.45
2022-08-11T04:33:07.549Z,19.35
2022-08-11T04:35:50.747Z,19.32
2022-08-11T04:39:00.112Z,19.27
2022-08-11T04:42:31.001Z,19.19
2022-08-11T04:45:30.151Z,19.12
2022-08-11T04:48:42.075Z,19.29
2022-08-11T04:51:50.778Z,19.28
2022-08-11T04:54:47.852Z,19.23
2022-08-11T04:57:42.554Z,19.47
2022-08-11T05:00:32.924Z,19.44
2022-08-11T05:03:31.488Z,19.58
2022-08-11T05:06:33.465Z,19.40
2022-08-11T05:09:46.636Z,19.45
2022-08-11T05:12:37.717Z,19.65
2022-08-11T05:15:29.112Z,19.68
2022-08-11T05:18:19.280Z,19.74
2022-08-11T05:21:09.696Z,19.69
2022-08-11T05:24:00.818Z,19.78
2022-08-11T05:26:55.162Z,19.92
2022-08-11T05:29:55.040Z,20.07
2022-08-11T05:32:42.841Z,20.19
2022-08-11T05:35:59.744Z,20.34
2022-08-11T05:38:20.224Z,20.44
2022-08-11T05:41:08.197Z,20.43
2022-08-11T05:44:20.424Z,20.41
2022-08-11T05:47:07.119Z,20.56
2022-08-11T05:49:53.861Z,20.74
2022-08-11T05:52:42.166Z,20.90
2022-08-11T05:55:30.262Z,20.97
2022-08-11T05:58:02.545Z,21.09
2022-08-11T06:00:32.744Z,21.19
2022-08-11T06:03:07.656Z,21.22
2022-08-11T06:05:44.043Z,21.33
2022-08-11T06:08:14.002Z,21.49
2022-08-11T06:10:44.483Z,21.60
2022-08-11T06:13:17.648Z,21.68
2022-08-11T06:15:47.434Z,21.76
2022-08-11T06:18:17.517Z,21.45
2022-08-11T06:20:51.672Z,21.66
2022-08-11T06:23:24.173Z,21.88
2022-08-11T06:28:32.558Z,22.06
2022-08-11T06:31:02.414Z,22.18
2022-08-11T06:33:47.876Z,22.49
2022-08-11T06:36:25.394Z,22.50
2022-08-11T06:39:03.741Z,22.52
2022-08-11T06:41:39.690Z,22.73
2022-08-11T06:44:22.491Z,22.63
2022-08-11T06:46:56.439Z,22.81
2022-08-11T06:49:53.026Z,22.90
2022-08-11T06:52:34.288Z,22.94
2022-08-11T06:55:57.895Z,22.90
2022-08-11T06:58:18.248Z,23.13
2022-08-11T07:00:48.859Z,23.17
2022-08-11T07:03:20.769Z,23.13
2022-08-11T07:05:55.763Z,23.11
2022-08-11T07:09:34.691Z,23.41
2022-08-11T07:12:37.997Z,23.66
2022-08-11T07:16:11.703Z,23.87
2022-08-11T07:18:41.203Z,24.08
2022-08-11T07:22:01.757Z,23.89
2022-08-11T07:24:59.401Z,24.25
2022-08-11T07:28:09.206Z,24.44
2022-08-11T07:30:43.056Z,24.49
2022-08-11T07:34:05.806Z,24.61
2022-08-11T07:36:15.090Z,24.84
2022-08-11T07:38:51.449Z,25.08
2022-08-11T07:41:21.372Z,25.21
2022-08-11T07:43:53.969Z,25.32
2022-08-11T07:46:42.645Z,25.43
2022-08-11T07:49:29.781Z,25.39
2022-08-11T07:52:17.091Z,25.43
2022-08-11T07:54:47.341Z,25.47
2022-08-11T07:58:10.233Z,25.34
2022-08-11T08:00:42.877Z,25.68
2022-08-11T08:03:33.336Z,25.79
2022-08-11T08:06:35.916Z,26.12
2022-08-11T08:09:26.324Z,26.32
2022-08-11T08:12:12.207Z,26.50
2022-08-11T08:14:57.950Z,26.60
2022-08-11T08:18:09.014Z,26.65
2022-08-11T08:20:39.088Z,26.97
2022-08-11T08:23:09.944Z,27.12
2022-08-11T08:25:41.879Z,26.96
2022-08-11T08:28:14.279Z,26.96
2022-08-11T08:30:48.544Z,27.14
2022-08-11T08:33:21.004Z,27.30
2022-08-11T08:35:54.457Z,27.41
2022-08-11T08:38:25.761Z,27.60
2022-08-11T08:40:56.829Z,27.73
2022-08-11T08:43:25.421Z,27.98
2022-08-11T08:45:57.520Z,27.93
2022-08-11T08:48:29.039Z,28.03
2022-08-11T08:51:22.026Z,27.90
2022-08-11T08:53:58.520Z,27.81
2022-08-11T08:56:30.412Z,27.80
2022-08-11T08:59:02.577Z,27.96
2022-08-11T09:01:34.980Z,28.10
2022-08-11T09:04:12.144Z,28.39
2022-08-11T09:06:43.948Z,28.52
2022-08-11T09:09:17.762Z,28.46
2022-08-11T09:11:54.603Z,28.49
2022-08-11T09:14:47.028Z,28.75
2022-08-11T09:17:15.769Z,29.15
2022-08-11T09:19:44.842Z,29.40
2022-08-11T09:22:38.485Z,29.34
2022-08-11T09:25:25.670Z,28.90
2022-08-11T09:27:56.732Z,29.49
2022-08-11T09:30:26.751Z,29.74
2022-08-11T09:32:58.113Z,29.64
2022-08-11T09:35:28.016Z,29.69
2022-08-11T09:38:15.137Z,29.86
2022-08-11T09:40:56.279Z,29.80
2022-08-11T09:43:47.189Z,29.84
2022-08-11T09:46:16.861Z,29.84
2022-08-11T09:48:47.794Z,29.49
2022-08-11T09:51:17.068Z,30.10
2022-08-11T09:53:47.073Z,30.02
2022-08-11T09:56:49.148Z,30.18
2022-08-11T09:59:20.765Z,30.27
2022-08-11T10:01:51.465Z,30.24
2022-08-11T10:04:24.693Z,30.14
2022-08-11T10:07:04.404Z,30.42
2022-08-11T10:09:40.104Z,30.71
2022-08-11T10:12:12.188Z,30.78
2022-08-11T10:15:04.382Z,31.11
2022-08-11T10:17:37.156Z,31.05
2022-08-11T10:20:10.460Z,31.04
2022-08-11T10:22:57.249Z,30.76
2022-08-11T10:25:43.208Z,30.93
2022-08-11T10:28:33.015Z,30.77
2022-08-11T10:31:22.673Z,30.74
2022-08-11T10:34:08.261Z,31.06
2022-08-11T10:36:52.511Z,31.17
2022-08-11T10:39:23.322Z,31.24
2022-08-11T10:42:13.263Z,31.41
2022-08-11T10:44:48.937Z,31.64
2022-08-11T10:47:36.849Z,31.70
2022-08-11T10:50:27.637Z,31.74
2022-08-11T10:53:15.290Z,31.53
2022-08-11T10:59:03.978Z,31.89
2022-08-11T11:01:38.872Z,32.32
2022-08-11T11:04:14.225Z,32.32
2022-08-11T11:06:52.106Z,32.59
2022-08-11T11:09:25.882Z,32.70
2022-08-11T11:12:18.096Z,32.99
2022-08-11T11:15:20.931Z,33.00
2022-08-11T11:18:02.570Z,32.71
2022-08-11T11:20:46.690Z,32.86
2022-08-11T11:23:20.140Z,33.23
2022-08-11T11:26:10.296Z,32.63
2022-08-11T11:29:13.270Z,32.67
2022-08-11T11:31:55.175Z,33.33
2022-08-11T11:34:53.082Z,33.58
2022-08-11T11:37:25.270Z,32.84
2022-08-11T11:39:55.614Z,33.41
2022-08-11T11:42:25.612Z,32.94
2022-08-11T11:44:56.361Z,33.06
2022-08-11T11:47:29.252Z,33.11
2022-08-11T11:49:58.579Z,33.38
2022-08-11T11:52:29.725Z,33.15
2022-08-11T11:55:00.550Z,32.90
2022-08-11T11:57:59.094Z,33.10
2022-08-11T12:00:49.213Z,33.74
2022-08-11T12:03:19.775Z,33.90
2022-08-11T12:05:49.841Z,33.89
2022-08-11T12:08:23.450Z,33.91
2022-08-11T12:11:17.451Z,33.66
2022-08-11T12:13:47.507Z,34.00
2022-08-11T12:16:33.300Z,34.39
2022-08-11T12:19:06.395Z,33.92
2022-08-11T12:21:38.007Z,33.63
2022-08-11T12:24:28.585Z,33.58
2022-08-11T12:27:17.851Z,33.83
2022-08-11T12:29:55.110Z,34.15
2022-08-11T12:32:28.980Z,34.08
2022-08-11T12:34:58.347Z,34.13
2022-08-11T12:37:34.529Z,34.89
2022-08-11T12:40:42.581Z,34.67
2022-08-11T12:43:38.280Z,35.29
2022-08-11T12:46:09.904Z,35.89
2022-08-11T12:49:02.542Z,35.97
2022-08-11T12:52:11.127Z,36.00
2022-08-11T12:54:52.470Z,35.25
2022-08-11T12:57:49.958Z,34.89
2022-08-11T13:00:37.430Z,34.72
2022-08-11T13:03:27.632Z,34.48
2022-08-11T13:05:59.306Z,34.24
2022-08-11T13:08:31.286Z,34.41
2022-08-11T13:11:19.217Z,34.83
2022-08-11T13:13:57.729Z,35.44
2022-08-11T13:16:30.943Z,35.88
2022-08-11T13:19:01.822Z,35.59
2022-08-11T13:21:31.735Z,36.34
2022-08-11T13:24:03.052Z,35.93
2022-08-11T13:26:47.579Z,35.23
2022-08-11T13:29:33.157Z,35.18
2022-08-11T13:32:02.299Z,35.45
2022-08-11T13:34:32.580Z,35.65
2022-08-11T13:37:02.758Z,36.42
2022-08-11T13:39:32.414Z,36.59
2022-08-11T13:42:03.169Z,36.35
2022-08-11T13:44:36.987Z,36.11
2022-08-11T13:47:08.537Z,35.80
2022-08-11T13:49:40.576Z,36.14
2022-08-11T13:52:13.174Z,35.48
2022-08-11T13:54:42.872Z,36.02
2022-08-11T13:58:06.232Z,36.14
2022-08-11T14:00:27.597Z,36.60
2022-08-11T14:02:59.264Z,36.27
2022-08-11T14:05:30.902Z,36.04
2022-08-11T14:08:02.784Z,35.29
2022-08-11T14:10:39.352Z,35.83
2022-08-11T14:13:29.104Z,35.64
2022-08-11T14:16:19.106Z,36.72
2022-08-11T14:18:50.798Z,36.54
2022-08-11T14:21:40.757Z,36.76
2022-08-11T14:24:11.834Z,36.91
2022-08-11T14:26:44.637Z,37.20
2022-08-11T14:29:15.560Z,36.65
2022-08-11T14:31:49.226Z,36.86
2022-08-11T14:34:21.428Z,36.44
2022-08-11T14:36:53.012Z,37.30
2022-08-11T14:39:24.636Z,36.49
2022-08-11T14:42:13.668Z,37.38
2022-08-11T14:45:07.538Z,36.71
2022-08-11T14:47:39.610Z,36.91
2022-08-11T14:50:14.092Z,36.39
2022-08-11T14:52:51.004Z,36.56
2022-08-11T14:55:39.232Z,37.58
2022-08-11T14:58:10.679Z,37.00
2022-08-11T15:00:41.265Z,36.51
2022-08-11T15:03:13.279Z,36.90
2022-08-11T15:05:56.981Z,36.59
2022-08-11T15:08:49.218Z,37.17
2022-08-11T15:11:37.688Z,37.61
2022-08-11T15:14:08.315Z,37.19
2022-08-11T15:16:56.164Z,36.61
2022-08-11T15:19:40.706Z,36.95
2022-08-11T15:22:30.338Z,37.59
2022-08-11T15:25:00.596Z,37.77
2022-08-11T15:27:49.183Z,37.31
2022-08-11T15:30:35.508Z,37.20
2022-08-11T15:33:24.853Z,37.77
2022-08-11T15:36:13.300Z,38.01
2022-08-11T15:38:44.703Z,38.38
2022-08-11T15:41:35.723Z,38.21
2022-08-11T15:44:59.012Z,38.42
2022-08-11T15:47:20.103Z,38.42
2022-08-11T15:50:10.558Z,38.46
2022-08-11T15:52:52.819Z,38.00
2022-08-11T15:55:24.785Z,37.95
2022-08-11T15:58:15.704Z,37.59
2022-08-11T16:01:08.927Z,38.09
2022-08-11T16:04:07.240Z,38.12
2022-08-11T16:06:56.597Z,37.49
2022-08-11T16:09:51.689Z,37.61
2022-08-11T16:12:24.705Z,37.14
2022-08-11T16:15:13.302Z,37.39
2022-08-11T16:17:44.560Z,36.83
2022-08-11T16:20:14.782Z,37.26
2022-08-11T16:22:55.458Z,37.11
2022-08-11T16:27:02.912Z,37.09
2022-08-11T16:28:26.682Z,36.91
2022-08-11T16:30:58.018Z,36.87
2022-08-11T16:33:50.101Z,37.06
2022-08-11T16:36:35.372Z,37.37
2022-08-11T16:39:05.696Z,37.50
2022-08-11T16:41:55.991Z,37.62
2022-08-11T16:44:44.359Z,37.41
2022-08-11T16:48:03.142Z,37.86
2022-08-11T16:50:09.564Z,37.91
2022-08-11T16:52:39.124Z,37.84
2022-08-11T16:55:10.110Z,37.58
2022-08-11T16:57:59.545Z,38.10
2022-08-11T17:00:30.269Z,37.48
2022-08-11T17:03:20.217Z,36.93
2022-08-11T17:06:09.822Z,37.40
2022-08-11T17:09:02.298Z,37.29
2022-08-11T17:11:54.207Z,36.71
2022-08-11T17:14:35.614Z,36.52
2022-08-11T17:17:05.810Z,36.07
2022-08-11T17:20:39.681Z,35.75
2022-08-11T17:22:42.988Z,35.74
2022-08-11T17:25:13.369Z,35.55
2022-08-11T17:27:44.816Z,35.58
2022-08-11T17:30:18.496Z,35.81
2022-08-11T17:33:08.119Z,35.51
2022-08-11T17:35:44.733Z,35.54
2022-08-11T17:38:16.435Z,35.34
2022-08-11T17:41:02.760Z,34.65
2022-08-11T17:43:49.075Z,34.53
2022-08-11T17:46:37.614Z,34.48
2022-08-11T17:49:08.377Z,33.66
2022-08-11T17:51:58.433Z,33.56
2022-08-11T17:54:45.691Z,33.39
2022-08-11T17:57:33.696Z,33.84
2022-08-11T18:00:04.529Z,33.33
2022-08-11T18:02:55.156Z,33.88
2022-08-11T18:05:26.969Z,33.24
2022-08-11T18:08:14.987Z,33.52
2022-08-11T18:11:01.878Z,33.02
2022-08-11T18:13:51.889Z,33.24
2022-08-11T18:16:40.369Z,33.00
2022-08-11T18:19:30.706Z,33.45
2022-08-11T18:22:24.393Z,33.32
2022-08-11T18:25:17.283Z,33.16
2022-08-11T18:28:05.556Z,32.96
2022-08-11T18:31:03.436Z,32.67
2022-08-11T18:34:06.970Z,32.64
2022-08-11T18:37:07.351Z,32.58
2022-08-11T18:39:56.601Z,32.45
2022-08-11T18:42:43.528Z,32.01
2022-08-11T18:45:35.804Z,32.00
2022-08-11T18:48:37.437Z,31.81
2022-08-11T18:51:36.211Z,31.81
2022-08-11T18:54:27.624Z,31.43
2022-08-11T18:57:17.916Z,31.44
2022-08-11T19:00:05.727Z,31.40
2022-08-11T19:02:55.851Z,31.25
2022-08-11T19:06:33.693Z,30.88
2022-08-11T19:08:58.367Z,30.89
2022-08-11T19:11:48.669Z,30.49
2022-08-11T19:14:37.644Z,30.27
2022-08-11T19:17:45.126Z,29.89
2022-08-11T19:20:35.495Z,29.70
2022-08-11T19:23:23.834Z,29.66
2022-08-11T19:26:09.996Z,29.83
2022-08-11T19:29:00.507Z,29.45
2022-08-11T19:31:50.290Z,29.53
2022-08-11T19:34:38.878Z,29.39
2022-08-11T19:37:26.166Z,29.58
2022-08-11T19:40:13.949Z,29.30
2022-08-11T19:43:01.805Z,29.31
2022-08-11T19:45:54.465Z,29.31
2022-08-11T19:48:44.429Z,28.95
2022-08-11T19:51:34.324Z,28.82
2022-08-11T19:54:21.786Z,28.31
2022-08-11T19:57:10.105Z,28.61
2022-08-11T19:59:57.787Z,28.51
2022-08-11T20:02:47.837Z,28.28
2022-08-11T20:05:34.902Z,28.18
2022-08-11T20:08:22.026Z,28.10
2022-08-11T20:11:10.995Z,28.08
2022-08-11T20:14:02.346Z,27.81
2022-08-11T20:16:50.204Z,27.95
2022-08-11T20:19:56.619Z,27.74
2022-08-11T20:22:45.180Z,27.61
2022-08-11T20:25:32.937Z,27.69
2022-08-11T20:28:19.921Z,27.43
2022-08-11T20:31:06.072Z,27.50
2022-08-11T20:33:53.075Z,27.26
2022-08-11T20:36:40.717Z,27.31
2022-08-11T20:39:29.141Z,27.09
2022-08-11T20:42:17.063Z,27.13
2022-08-11T20:45:03.770Z,27.07
2022-08-11T20:47:59.061Z,26.98
2022-08-11T20:50:47.957Z,26.82
2022-08-11T20:53:40.612Z,26.70
2022-08-11T20:56:28.749Z,26.70
2022-08-11T20:59:18.331Z,26.59
2022-08-11T21:02:10.036Z,26.52
2022-08-11T21:04:57.568Z,26.61
2022-08-11T21:07:55.386Z,26.60
2022-08-11T21:10:47.266Z,26.63
2022-08-11T21:13:39.410Z,26.68
2022-08-11T21:16:27.688Z,26.60
2022-08-11T21:19:55.156Z,26.61
2022-08-11T21:22:28.192Z,26.56
2022-08-11T21:25:16.305Z,26.47
2022-08-11T21:28:05.137Z,26.29
2022-08-11T21:30:57.786Z,25.59
2022-08-11T21:33:46.235Z,25.82
2022-08-11T21:36:34.136Z,25.65
2022-08-11T21:39:24.932Z,25.70
2022-08-11T21:42:12.615Z,25.67
2022-08-11T21:45:01.748Z,25.58
2022-08-11T21:47:48.012Z,25.65
2022-08-11T21:50:33.962Z,25.60
2022-08-11T21:53:20.675Z,25.44
2022-08-11T21:56:11.042Z,25.41
2022-08-11T21:59:06.831Z,25.30
2022-08-11T22:01:55.464Z,25.25
2022-08-11T22:04:43.995Z,25.17
2022-08-11T22:07:34.396Z,25.20
2022-08-11T22:10:41.134Z,25.21
2022-08-11T22:13:31.032Z,25.08
2022-08-11T22:16:19.828Z,25.13
2022-08-11T22:19:09.748Z,25.14
2022-08-11T22:22:01.511Z,25.13
2022-08-11T22:24:51.907Z,25.03
2022-08-11T22:27:37.813Z,24.96
2022-08-11T22:30:25.136Z,24.88
2022-08-11T22:33:12.297Z,24.92
2022-08-11T22:36:04.135Z,24.87
2022-08-11T22:38:51.286Z,24.70
2022-08-11T22:41:37.360Z,24.80
2022-08-11T22:44:23.856Z,24.73
2022-08-11T22:47:10.765Z,24.91
2022-08-11T22:49:59.181Z,24.91
2022-08-11T22:52:47.427Z,24.84
2022-08-11T22:55:34.139Z,24.92
2022-08-11T22:58:21.029Z,25.01
2022-08-11T23:01:07.518Z,24.77
2022-08-11T23:03:53.826Z,24.60
2022-08-11T23:06:41.419Z,24.48
2022-08-11T23:09:29.097Z,24.45
2022-08-11T23:12:16.440Z,24.32
2022-08-11T23:15:03.487Z,24.15
2022-08-11T23:17:50.397Z,23.80
2022-08-11T23:20:41.539Z,23.78
2022-08-11T23:23:30.987Z,23.70
2022-08-11T23:26:20.796Z,23.70
2022-08-11T23:29:06.587Z,23.64
2022-08-11T23:31:54.020Z,23.55
2022-08-11T23:35:03.710Z,23.48
2022-08-11T23:37:51.124Z,23.50
2022-08-11T23:40:37.503Z,23.26
2022-08-11T23:43:26.178Z,23.28
2022-08-11T23:46:11.999Z,23.23
2022-08-11T23:48:58.301Z,23.24
2022-08-11T23:51:46.799Z,23.04
2022-08-11T23:54:37.393Z,22.87
2022-08-11T23:57:23.946Z,22.80
